sensor_id;sensor_type;location;lat;lon;timestamp;temperature;humidity
68439;SHT31;55421;51.600;5.718;2023-02-01T00:00:56;5.76;82.82
68439;SHT31;55421;51.600;5.718;2023-02-01T00:03:25;5.76;82.87
68439;SHT31;55421;51.600;5.718;2023-02-01T00:05:58;5.76;82.87
68439;SHT31;55421;51.600;5.718;2023-02-01T00:08:26;5.77;82.84
68439;SHT31;55421;51.600;5.718;2023-02-01T00:10:59;5.78;82.80
68439;SHT31;55421;51.600;5.718;2023-02-01T00:13:36;5.81;82.76
68439;SHT31;55421;51.600;5.718;2023-02-01T00:16:06;5.80;82.70
68439;SHT31;55421;51.600;5.718;2023-02-01T00:18:36;5.78;82.68
68439;SHT31;55421;51.600;5.718;2023-02-01T00:21:02;5.78;82.66
68439;SHT31;55421;51.600;5.718;2023-02-01T00:23:31;5.81;82.64
68439;SHT31;55421;51.600;5.718;2023-02-01T00:26:01;5.84;82.61
68439;SHT31;55421;51.600;5.718;2023-02-01T00:28:29;5.87;82.60
68439;SHT31;55421;51.600;5.718;2023-02-01T00:30:57;5.89;82.56
68439;SHT31;55421;51.600;5.718;2023-02-01T00:33:26;5.89;82.48
68439;SHT31;55421;51.600;5.718;2023-02-01T00:35:57;5.86;82.39
68439;SHT31;55421;51.600;5.718;2023-02-01T00:38:28;5.85;82.37
68439;SHT31;55421;51.600;5.718;2023-02-01T00:41:03;5.87;82.31
68439;SHT31;55421;51.600;5.718;2023-02-01T00:43:36;5.88;82.18
68439;SHT31;55421;51.600;5.718;2023-02-01T00:46:03;5.87;82.05
68439;SHT31;55421;51.600;5.718;2023-02-01T00:48:30;5.85;81.98
68439;SHT31;55421;51.600;5.718;2023-02-01T00:51:00;5.82;81.87
68439;SHT31;55421;51.600;5.718;2023-02-01T00:53:29;5.79;81.77
68439;SHT31;55421;51.600;5.718;2023-02-01T00:55:57;5.77;81.68
68439;SHT31;55421;51.600;5.718;2023-02-01T00:58:24;5.79;81.56
68439;SHT31;55421;51.600;5.718;2023-02-01T01:03:43;5.78;81.27
68439;SHT31;55421;51.600;5.718;2023-02-01T01:06:13;5.76;81.19
68439;SHT31;55421;51.600;5.718;2023-02-01T01:08:43;5.74;81.15
68439;SHT31;55421;51.600;5.718;2023-02-01T01:11:11;5.71;81.10
68439;SHT31;55421;51.600;5.718;2023-02-01T01:13:41;5.71;81.00
68439;SHT31;55421;51.600;5.718;2023-02-01T01:16:09;5.71;80.89
68439;SHT31;55421;51.600;5.718;2023-02-01T01:18:36;5.71;80.82
68439;SHT31;55421;51.600;5.718;2023-02-01T01:21:05;5.70;80.71
68439;SHT31;55421;51.600;5.718;2023-02-01T01:23:34;5.66;80.58
68439;SHT31;55421;51.600;5.718;2023-02-01T01:26:06;5.63;80.50
68439;SHT31;55421;51.600;5.718;2023-02-01T01:28:36;5.62;80.49
68439;SHT31;55421;51.600;5.718;2023-02-01T01:31:02;5.60;80.43
68439;SHT31;55421;51.600;5.718;2023-02-01T01:33:29;5.57;80.39
68439;SHT31;55421;51.600;5.718;2023-02-01T01:35:55;5.54;80.32
68439;SHT31;55421;51.600;5.718;2023-02-01T01:38:22;5.49;80.39
68439;SHT31;55421;51.600;5.718;2023-02-01T01:40:48;5.43;80.40
68439;SHT31;55421;51.600;5.718;2023-02-01T01:43:18;5.40;80.39
68439;SHT31;55421;51.600;5.718;2023-02-01T01:45:48;5.37;80.40
68439;SHT31;55421;51.600;5.718;2023-02-01T01:48:23;5.37;80.32
68439;SHT31;55421;51.600;5.718;2023-02-01T01:50:56;5.35;80.30
68439;SHT31;55421;51.600;5.718;2023-02-01T01:53:31;5.34;80.33
68439;SHT31;55421;51.600;5.718;2023-02-01T01:56:04;5.30;80.30
68439;SHT31;55421;51.600;5.718;2023-02-01T01:58:31;5.27;80.36
68439;SHT31;55421;51.600;5.718;2023-02-01T02:01:00;5.24;80.35
68439;SHT31;55421;51.600;5.718;2023-02-01T02:03:34;5.23;80.40
68439;SHT31;55421;51.600;5.718;2023-02-01T02:06:12;5.22;80.40
68439;SHT31;55421;51.600;5.718;2023-02-01T02:09:14;5.22;80.34
68439;SHT31;55421;51.600;5.718;2023-02-01T02:11:42;5.21;80.31
68439;SHT31;55421;51.600;5.718;2023-02-01T02:14:09;5.18;80.30
68439;SHT31;55421;51.600;5.718;2023-02-01T02:28:53;5.18;80.44
68439;SHT31;55421;51.600;5.718;2023-02-01T02:31:54;5.19;80.49
68439;SHT31;55421;51.600;5.718;2023-02-01T02:34:41;5.16;80.50
68439;SHT31;55421;51.600;5.718;2023-02-01T02:45:45;5.16;80.69
68439;SHT31;55421;51.600;5.718;2023-02-01T02:48:52;5.19;80.79
68439;SHT31;55421;51.600;5.718;2023-02-01T02:51:41;5.20;80.94
68439;SHT31;55421;51.600;5.718;2023-02-01T02:54:37;5.22;81.06
68439;SHT31;55421;51.600;5.718;2023-02-01T02:57:34;5.24;81.12
68439;SHT31;55421;51.600;5.718;2023-02-01T03:00:24;5.27;81.20
68439;SHT31;55421;51.600;5.718;2023-02-01T03:03:16;5.28;81.21
68439;SHT31;55421;51.600;5.718;2023-02-01T03:06:01;5.28;81.25
68439;SHT31;55421;51.600;5.718;2023-02-01T03:08:30;5.28;81.30
68439;SHT31;55421;51.600;5.718;2023-02-01T03:11:09;5.30;81.38
68439;SHT31;55421;51.600;5.718;2023-02-01T03:14:00;5.34;81.40
68439;SHT31;55421;51.600;5.718;2023-02-01T03:16:32;5.38;81.46
68439;SHT31;55421;51.600;5.718;2023-02-01T03:19:09;5.40;81.50
68439;SHT31;55421;51.600;5.718;2023-02-01T03:21:57;5.41;81.50
68439;SHT31;55421;51.600;5.718;2023-02-01T03:24:38;5.43;81.58
68439;SHT31;55421;51.600;5.718;2023-02-01T03:27:13;5.45;81.55
68439;SHT31;55421;51.600;5.718;2023-02-01T03:30:07;5.50;81.58
68439;SHT31;55421;51.600;5.718;2023-02-01T03:32:44;5.53;81.59
68439;SHT31;55421;51.600;5.718;2023-02-01T03:36:14;5.53;81.56
68439;SHT31;55421;51.600;5.718;2023-02-01T03:38:58;5.51;81.59
68439;SHT31;55421;51.600;5.718;2023-02-01T03:41:45;5.53;81.58
68439;SHT31;55421;51.600;5.718;2023-02-01T03:44:27;5.53;81.50
68439;SHT31;55421;51.600;5.718;2023-02-01T03:49:45;5.47;81.57
68439;SHT31;55421;51.600;5.718;2023-02-01T03:52:25;5.43;81.60
68439;SHT31;55421;51.600;5.718;2023-02-01T03:54:58;5.42;81.67
68439;SHT31;55421;51.600;5.718;2023-02-01T03:57:27;5.42;81.67
68439;SHT31;55421;51.600;5.718;2023-02-01T04:00:07;5.43;81.60
68439;SHT31;55421;51.600;5.718;2023-02-01T04:02:43;5.40;81.65
68439;SHT31;55421;51.600;5.718;2023-02-01T04:05:10;5.37;81.70
68439;SHT31;55421;51.600;5.718;2023-02-01T04:07:37;5.34;81.74
68439;SHT31;55421;51.600;5.718;2023-02-01T04:10:04;5.34;81.79
68439;SHT31;55421;51.600;5.718;2023-02-01T04:12:31;5.34;81.80
68439;SHT31;55421;51.600;5.718;2023-02-01T04:14:59;5.34;81.81
68439;SHT31;55421;51.600;5.718;2023-02-01T04:17:26;5.31;81.84
68439;SHT31;55421;51.600;5.718;2023-02-01T04:19:52;5.27;81.88
68439;SHT31;55421;51.600;5.718;2023-02-01T04:22:19;5.26;81.90
68439;SHT31;55421;51.600;5.718;2023-02-01T04:24:45;5.26;81.93
68439;SHT31;55421;51.600;5.718;2023-02-01T04:27:12;5.26;81.96
68439;SHT31;55421;51.600;5.718;2023-02-01T04:29:39;5.26;82.00
68439;SHT31;55421;51.600;5.718;2023-02-01T04:32:06;5.25;82.00
68439;SHT31;55421;51.600;5.718;2023-02-01T04:34:32;5.23;82.04
68439;SHT31;55421;51.600;5.718;2023-02-01T04:36:59;5.22;82.09
68439;SHT31;55421;51.600;5.718;2023-02-01T04:39:26;5.21;82.10
68439;SHT31;55421;51.600;5.718;2023-02-01T04:41:52;5.22;82.10
68439;SHT31;55421;51.600;5.718;2023-02-01T04:44:19;5.20;82.13
68439;SHT31;55421;51.600;5.718;2023-02-01T04:46:46;5.18;82.20
68439;SHT31;55421;51.600;5.718;2023-02-01T04:49:14;5.16;82.20
68439;SHT31;55421;51.600;5.718;2023-02-01T04:51:41;5.15;82.21
68439;SHT31;55421;51.600;5.718;2023-02-01T04:54:09;5.16;82.28
68439;SHT31;55421;51.600;5.718;2023-02-01T04:56:37;5.18;82.34
68439;SHT31;55421;51.600;5.718;2023-02-01T04:59:04;5.18;82.38
68439;SHT31;55421;51.600;5.718;2023-02-01T05:01:32;5.17;82.40
68439;SHT31;55421;51.600;5.718;2023-02-01T05:03:59;5.18;82.44
68439;SHT31;55421;51.600;5.718;2023-02-01T05:06:25;5.21;82.50
68439;SHT31;55421;51.600;5.718;2023-02-01T05:08:52;5.24;82.50
68439;SHT31;55421;51.600;5.718;2023-02-01T05:11:18;5.29;82.51
68439;SHT31;55421;51.600;5.718;2023-02-01T05:14:04;5.32;82.59
68439;SHT31;55421;51.600;5.718;2023-02-01T05:16:30;5.33;82.58
68439;SHT31;55421;51.600;5.718;2023-02-01T05:18:57;5.37;82.60
68439;SHT31;55421;51.600;5.718;2023-02-01T05:21:23;5.41;82.54
68439;SHT31;55421;51.600;5.718;2023-02-01T05:23:50;5.44;82.53
68439;SHT31;55421;51.600;5.718;2023-02-01T05:26:36;5.47;82.59
68439;SHT31;55421;51.600;5.718;2023-02-01T05:29:04;5.47;82.56
68439;SHT31;55421;51.600;5.718;2023-02-01T05:31:31;5.49;82.60
68439;SHT31;55421;51.600;5.718;2023-02-01T05:33:57;5.53;82.57
68439;SHT31;55421;51.600;5.718;2023-02-01T05:36:24;5.58;82.56
68439;SHT31;55421;51.600;5.718;2023-02-01T05:38:51;5.59;82.51
68439;SHT31;55421;51.600;5.718;2023-02-01T05:41:17;5.60;82.51
68439;SHT31;55421;51.600;5.718;2023-02-01T05:43:44;5.61;82.50
68439;SHT31;55421;51.600;5.718;2023-02-01T05:46:10;5.64;82.49
68439;SHT31;55421;51.600;5.718;2023-02-01T05:48:42;5.65;82.42
68439;SHT31;55421;51.600;5.718;2023-02-01T05:51:09;5.64;82.40
68439;SHT31;55421;51.600;5.718;2023-02-01T05:53:37;5.63;82.40
68439;SHT31;55421;51.600;5.718;2023-02-01T05:56:04;5.60;82.41
68439;SHT31;55421;51.600;5.718;2023-02-01T05:58:31;5.57;82.43
68439;SHT31;55421;51.600;5.718;2023-02-01T06:01:01;5.57;82.49
68439;SHT31;55421;51.600;5.718;2023-02-01T06:03:29;5.59;82.47
68439;SHT31;55421;51.600;5.718;2023-02-01T06:05:56;5.61;82.50
68439;SHT31;55421;51.600;5.718;2023-02-01T06:08:22;5.62;82.53
68439;SHT31;55421;51.600;5.718;2023-02-01T06:10:57;5.61;82.59
68439;SHT31;55421;51.600;5.718;2023-02-01T06:13:25;5.61;82.60
68439;SHT31;55421;51.600;5.718;2023-02-01T06:15:52;5.61;82.60
68439;SHT31;55421;51.600;5.718;2023-02-01T06:18:19;5.65;82.60
68439;SHT31;55421;51.600;5.718;2023-02-01T06:20:51;5.68;82.58
68439;SHT31;55421;51.600;5.718;2023-02-01T06:23:19;5.72;82.56
68439;SHT31;55421;51.600;5.718;2023-02-01T06:25:53;5.74;82.59
68439;SHT31;55421;51.600;5.718;2023-02-01T06:28:26;5.74;82.57
68439;SHT31;55421;51.600;5.718;2023-02-01T06:30:54;5.75;82.53
68439;SHT31;55421;51.600;5.718;2023-02-01T06:33:21;5.78;82.52
68439;SHT31;55421;51.600;5.718;2023-02-01T06:35:48;5.82;82.50
68439;SHT31;55421;51.600;5.718;2023-02-01T06:38:14;5.83;82.50
68439;SHT31;55421;51.600;5.718;2023-02-01T06:40:41;5.83;82.52
68439;SHT31;55421;51.600;5.718;2023-02-01T06:43:08;5.84;82.55
68439;SHT31;55421;51.600;5.718;2023-02-01T06:45:34;5.87;82.52
68439;SHT31;55421;51.600;5.718;2023-02-01T06:48:01;5.91;82.51
68439;SHT31;55421;51.600;5.718;2023-02-01T06:50:27;5.94;82.51
68439;SHT31;55421;51.600;5.718;2023-02-01T06:52:54;5.96;82.52
68439;SHT31;55421;51.600;5.718;2023-02-01T06:55:21;5.97;82.50
68439;SHT31;55421;51.600;5.718;2023-02-01T06:57:48;5.99;82.51
68439;SHT31;55421;51.600;5.718;2023-02-01T07:00:19;6.03;82.50
68439;SHT31;55421;51.600;5.718;2023-02-01T07:02:47;6.06;82.42
68439;SHT31;55421;51.600;5.718;2023-02-01T07:05:13;6.08;82.40
68439;SHT31;55421;51.600;5.718;2023-02-01T07:07:40;6.09;82.39
68439;SHT31;55421;51.600;5.718;2023-02-01T07:10:07;6.09;82.32
68439;SHT31;55421;51.600;5.718;2023-02-01T07:12:35;6.11;82.29
68439;SHT31;55421;51.600;5.718;2023-02-01T07:15:02;6.15;82.20
68439;SHT31;55421;51.600;5.718;2023-02-01T07:17:30;6.16;82.16
68439;SHT31;55421;51.600;5.718;2023-02-01T07:19:57;6.16;82.10
68439;SHT31;55421;51.600;5.718;2023-02-01T07:22:25;6.14;82.09
68439;SHT31;55421;51.600;5.718;2023-02-01T07:24:52;6.17;82.04
68439;SHT31;55421;51.600;5.718;2023-02-01T07:27:19;6.20;81.98
68439;SHT31;55421;51.600;5.718;2023-02-01T07:29:46;6.20;81.86
68439;SHT31;55421;51.600;5.718;2023-02-01T07:32:12;6.20;81.80
68439;SHT31;55421;51.600;5.718;2023-02-01T07:34:39;6.17;81.79
68439;SHT31;55421;51.600;5.718;2023-02-01T07:37:05;6.14;81.72
68439;SHT31;55421;51.600;5.718;2023-02-01T07:39:32;6.14;81.69
68439;SHT31;55421;51.600;5.718;2023-02-01T07:41:59;6.14;81.61
68439;SHT31;55421;51.600;5.718;2023-02-01T07:44:25;6.12;81.60
68439;SHT31;55421;51.600;5.718;2023-02-01T07:46:52;6.09;81.60
68439;SHT31;55421;51.600;5.718;2023-02-01T07:49:18;6.07;81.60
68439;SHT31;55421;51.600;5.718;2023-02-01T07:51:45;6.07;81.60
68439;SHT31;55421;51.600;5.718;2023-02-01T07:54:11;6.09;81.60
68439;SHT31;55421;51.600;5.718;2023-02-01T07:56:38;6.11;81.51
68439;SHT31;55421;51.600;5.718;2023-02-01T07:59:04;6.11;81.53
68439;SHT31;55421;51.600;5.718;2023-02-01T08:01:33;6.10;81.52
68439;SHT31;55421;51.600;5.718;2023-02-01T08:04:00;6.09;81.53
68439;SHT31;55421;51.600;5.718;2023-02-01T08:06:30;6.09;81.56
68439;SHT31;55421;51.600;5.718;2023-02-01T08:09:00;6.12;81.57
68439;SHT31;55421;51.600;5.718;2023-02-01T08:11:27;6.14;81.55
68439;SHT31;55421;51.600;5.718;2023-02-01T08:13:54;6.15;81.50
68439;SHT31;55421;51.600;5.718;2023-02-01T08:16:22;6.17;81.50
68439;SHT31;55421;51.600;5.718;2023-02-01T08:18:50;6.19;81.50
68439;SHT31;55421;51.600;5.718;2023-02-01T08:21:19;6.23;81.49
68439;SHT31;55421;51.600;5.718;2023-02-01T08:23:49;6.27;81.50
68439;SHT31;55421;51.600;5.718;2023-02-01T08:26:24;6.29;81.49
68439;SHT31;55421;51.600;5.718;2023-02-01T08:28:53;6.33;81.54
68439;SHT31;55421;51.600;5.718;2023-02-01T08:31:23;6.37;81.60
68439;SHT31;55421;51.600;5.718;2023-02-01T08:33:52;6.44;81.51
68439;SHT31;55421;51.600;5.718;2023-02-01T08:36:22;6.50;81.41
68439;SHT31;55421;51.600;5.718;2023-02-01T08:38:51;6.56;81.31
68439;SHT31;55421;51.600;5.718;2023-02-01T08:41:19;6.58;81.24
68439;SHT31;55421;51.600;5.718;2023-02-01T08:43:49;6.62;81.20
68439;SHT31;55421;51.600;5.718;2023-02-01T08:46:17;6.65;81.18
68439;SHT31;55421;51.600;5.718;2023-02-01T08:48:44;6.67;81.02
68439;SHT31;55421;51.600;5.718;2023-02-01T08:51:13;6.69;80.91
68439;SHT31;55421;51.600;5.718;2023-02-01T08:53:43;6.72;81.00
68439;SHT31;55421;51.600;5.718;2023-02-01T08:56:11;6.74;80.89
68439;SHT31;55421;51.600;5.718;2023-02-01T08:58:41;6.79;80.74
68439;SHT31;55421;51.600;5.718;2023-02-01T09:01:08;6.84;80.59
68439;SHT31;55421;51.600;5.718;2023-02-01T09:03:38;6.85;80.53
68439;SHT31;55421;51.600;5.718;2023-02-01T09:06:09;6.88;80.49
68439;SHT31;55421;51.600;5.718;2023-02-01T09:08:38;6.93;80.50
68439;SHT31;55421;51.600;5.718;2023-02-01T09:11:08;6.97;80.41
68439;SHT31;55421;51.600;5.718;2023-02-01T09:13:39;7.01;80.39
68439;SHT31;55421;51.600;5.718;2023-02-01T09:16:06;7.02;80.24
68439;SHT31;55421;51.600;5.718;2023-02-01T09:18:32;7.04;80.17
68439;SHT31;55421;51.600;5.718;2023-02-01T09:21:03;7.04;80.01
68439;SHT31;55421;51.600;5.718;2023-02-01T09:23:33;7.06;79.90
68439;SHT31;55421;51.600;5.718;2023-02-01T09:26:01;7.08;79.83
68439;SHT31;55421;51.600;5.718;2023-02-01T09:28:30;7.10;79.63
68439;SHT31;55421;51.600;5.718;2023-02-01T09:30:58;7.12;79.60
68439;SHT31;55421;51.600;5.718;2023-02-01T09:33:27;7.16;79.66
68439;SHT31;55421;51.600;5.718;2023-02-01T09:35:58;7.24;79.61
68439;SHT31;55421;51.600;5.718;2023-02-01T09:38:28;7.30;79.53
68439;SHT31;55421;51.600;5.718;2023-02-01T09:40:56;7.31;79.28
68439;SHT31;55421;51.600;5.718;2023-02-01T09:48:54;7.39;79.21
68439;SHT31;55421;51.600;5.718;2023-02-01T09:51:26;7.42;79.26
68439;SHT31;55421;51.600;5.718;2023-02-01T09:59:28;7.53;79.03
68439;SHT31;55421;51.600;5.718;2023-02-01T10:02:24;7.57;78.94
68439;SHT31;55421;51.600;5.718;2023-02-01T10:04:55;7.63;79.06
68439;SHT31;55421;51.600;5.718;2023-02-01T10:07:46;7.70;79.02
68439;SHT31;55421;51.600;5.718;2023-02-01T10:10:30;7.73;78.89
68439;SHT31;55421;51.600;5.718;2023-02-01T10:25:07;7.98;78.05
68439;SHT31;55421;51.600;5.718;2023-02-01T10:27:45;8.01;77.62
68439;SHT31;55421;51.600;5.718;2023-02-01T10:30:16;8.03;77.44
68439;SHT31;55421;51.600;5.718;2023-02-01T10:33:02;8.04;77.29
68439;SHT31;55421;51.600;5.718;2023-02-01T10:35:40;8.03;77.01
68439;SHT31;55421;51.600;5.718;2023-02-01T10:38:18;8.02;76.75
68439;SHT31;55421;51.600;5.718;2023-02-01T10:40:55;8.03;76.77
68439;SHT31;55421;51.600;5.718;2023-02-01T10:43:38;8.05;76.52
68439;SHT31;55421;51.600;5.718;2023-02-01T10:46:06;8.04;76.38
68439;SHT31;55421;51.600;5.718;2023-02-01T10:48:34;8.02;76.23
68439;SHT31;55421;51.600;5.718;2023-02-01T10:53:34;8.02;76.11
68439;SHT31;55421;51.600;5.718;2023-02-01T10:56:13;8.03;75.94
68439;SHT31;55421;51.600;5.718;2023-02-01T10:58:43;8.02;75.80
68439;SHT31;55421;51.600;5.718;2023-02-01T11:01:24;8.00;75.52
68439;SHT31;55421;51.600;5.718;2023-02-01T11:04:18;8.02;75.43
68439;SHT31;55421;51.600;5.718;2023-02-01T11:06:53;8.05;75.64
68439;SHT31;55421;51.600;5.718;2023-02-01T11:09:35;8.05;75.69
68439;SHT31;55421;51.600;5.718;2023-02-01T11:12:20;8.07;75.40
68439;SHT31;55421;51.600;5.718;2023-02-01T11:15:01;8.08;75.22
68439;SHT31;55421;51.600;5.718;2023-02-01T11:17:42;8.10;75.36
68439;SHT31;55421;51.600;5.718;2023-02-01T11:20:13;8.10;75.20
68439;SHT31;55421;51.600;5.718;2023-02-01T11:22:46;8.09;75.14
68439;SHT31;55421;51.600;5.718;2023-02-01T11:25:22;8.08;75.10
68439;SHT31;55421;51.600;5.718;2023-02-01T11:27:51;8.09;75.05
68439;SHT31;55421;51.600;5.718;2023-02-01T11:30:24;8.09;75.21
68439;SHT31;55421;51.600;5.718;2023-02-01T11:32:58;8.06;74.88
68439;SHT31;55421;51.600;5.718;2023-02-01T11:35:27;8.03;74.96
68439;SHT31;55421;51.600;5.718;2023-02-01T11:37:57;8.05;75.05
68439;SHT31;55421;51.600;5.718;2023-02-01T11:40:29;8.09;75.06
68439;SHT31;55421;51.600;5.718;2023-02-01T11:43:13;8.10;75.00
68439;SHT31;55421;51.600;5.718;2023-02-01T11:45:54;8.11;75.02
68439;SHT31;55421;51.600;5.718;2023-02-01T11:48:33;8.09;74.86
68439;SHT31;55421;51.600;5.718;2023-02-01T12:08:22;8.31;74.65
68439;SHT31;55421;51.600;5.718;2023-02-01T12:14:39;8.28;74.41
68439;SHT31;55421;51.600;5.718;2023-02-01T12:44:25;8.30;74.51
68439;SHT31;55421;51.600;5.718;2023-02-01T12:47:03;8.30;74.50
68439;SHT31;55421;51.600;5.718;2023-02-01T12:52:21;8.34;74.70
68439;SHT31;55421;51.600;5.718;2023-02-01T12:55:09;8.38;74.58
68439;SHT31;55421;51.600;5.718;2023-02-01T12:58:02;8.41;74.54
68439;SHT31;55421;51.600;5.718;2023-02-01T13:00:51;8.43;74.37
68439;SHT31;55421;51.600;5.718;2023-02-01T13:06:32;8.58;74.16
68439;SHT31;55421;51.600;5.718;2023-02-01T13:11:47;8.86;73.86
68439;SHT31;55421;51.600;5.718;2023-02-01T13:14:23;8.97;73.87
68439;SHT31;55421;51.600;5.718;2023-02-01T13:17:02;9.05;73.41
68439;SHT31;55421;51.600;5.718;2023-02-01T13:22:51;9.10;72.94
68439;SHT31;55421;51.600;5.718;2023-02-01T13:28:18;9.13;72.88
68439;SHT31;55421;51.600;5.718;2023-02-01T13:33:55;9.20;72.96
68439;SHT31;55421;51.600;5.718;2023-02-01T13:36:56;9.25;73.13
68439;SHT31;55421;51.600;5.718;2023-02-01T13:40:16;9.27;72.89
68439;SHT31;55421;51.600;5.718;2023-02-01T13:43:01;9.26;72.83
68439;SHT31;55421;51.600;5.718;2023-02-01T13:45:37;9.24;72.57
68439;SHT31;55421;51.600;5.718;2023-02-01T13:48:51;9.22;72.70
68439;SHT31;55421;51.600;5.718;2023-02-01T13:51:34;9.23;72.74
68439;SHT31;55421;51.600;5.718;2023-02-01T13:54:25;9.25;72.79
68439;SHT31;55421;51.600;5.718;2023-02-01T13:56:56;9.28;72.73
68439;SHT31;55421;51.600;5.718;2023-02-01T14:05:07;9.28;72.75
68439;SHT31;55421;51.600;5.718;2023-02-01T14:07:40;9.28;72.86
68439;SHT31;55421;51.600;5.718;2023-02-01T14:23:42;9.05;73.36
68439;SHT31;55421;51.600;5.718;2023-02-01T14:26:24;8.99;73.52
68439;SHT31;55421;51.600;5.718;2023-02-01T14:34:42;8.91;73.60
68439;SHT31;55421;51.600;5.718;2023-02-01T14:47:52;8.81;74.32
68439;SHT31;55421;51.600;5.718;2023-02-01T14:50:30;8.81;74.41
68439;SHT31;55421;51.600;5.718;2023-02-01T14:55:42;8.79;74.41
68439;SHT31;55421;51.600;5.718;2023-02-01T15:00:58;8.84;74.47
68439;SHT31;55421;51.600;5.718;2023-02-01T15:03:41;8.83;74.56
68439;SHT31;55421;51.600;5.718;2023-02-01T15:06:20;8.82;74.47
68439;SHT31;55421;51.600;5.718;2023-02-01T15:09:14;8.80;74.39
68439;SHT31;55421;51.600;5.718;2023-02-01T15:11:59;8.80;74.28
68439;SHT31;55421;51.600;5.718;2023-02-01T15:17:57;8.78;74.32
68439;SHT31;55421;51.600;5.718;2023-02-01T15:20:30;8.76;74.50
68439;SHT31;55421;51.600;5.718;2023-02-01T15:22:59;8.76;74.46
68439;SHT31;55421;51.600;5.718;2023-02-01T15:25:32;8.77;74.40
68439;SHT31;55421;51.600;5.718;2023-02-01T15:28:03;8.76;74.41
68439;SHT31;55421;51.600;5.718;2023-02-01T15:30:33;8.74;74.62
68439;SHT31;55421;51.600;5.718;2023-02-01T15:35:47;8.70;74.63
68439;SHT31;55421;51.600;5.718;2023-02-01T15:43:42;8.67;74.98
68439;SHT31;55421;51.600;5.718;2023-02-01T15:46:24;8.66;75.13
68439;SHT31;55421;51.600;5.718;2023-02-01T15:48:58;8.66;75.11
68439;SHT31;55421;51.600;5.718;2023-02-01T15:51:25;8.67;75.13
68439;SHT31;55421;51.600;5.718;2023-02-01T15:53:58;8.66;75.15
68439;SHT31;55421;51.600;5.718;2023-02-01T15:56:29;8.64;75.17
68439;SHT31;55421;51.600;5.718;2023-02-01T15:59:02;8.62;75.14
68439;SHT31;55421;51.600;5.718;2023-02-01T16:01:38;8.63;75.20
68439;SHT31;55421;51.600;5.718;2023-02-01T16:06:50;8.62;75.14
68439;SHT31;55421;51.600;5.718;2023-02-01T16:09:21;8.61;75.22
68439;SHT31;55421;51.600;5.718;2023-02-01T16:11:55;8.62;75.21
68439;SHT31;55421;51.600;5.718;2023-02-01T16:14:27;8.64;75.20
68439;SHT31;55421;51.600;5.718;2023-02-01T16:16:55;8.64;75.19
68439;SHT31;55421;51.600;5.718;2023-02-01T16:19:24;8.64;75.03
68439;SHT31;55421;51.600;5.718;2023-02-01T16:21:56;8.65;75.01
68439;SHT31;55421;51.600;5.718;2023-02-01T16:24:24;8.66;74.92
68439;SHT31;55421;51.600;5.718;2023-02-01T16:26:52;8.69;74.91
68439;SHT31;55421;51.600;5.718;2023-02-01T16:29:18;8.70;74.82
68439;SHT31;55421;51.600;5.718;2023-02-01T16:31:45;8.71;74.77
68439;SHT31;55421;51.600;5.718;2023-02-01T16:34:15;8.70;74.70
68439;SHT31;55421;51.600;5.718;2023-02-01T16:36:43;8.70;74.67
68439;SHT31;55421;51.600;5.718;2023-02-01T16:39:18;8.73;74.70
68439;SHT31;55421;51.600;5.718;2023-02-01T16:41:46;8.72;74.78
68439;SHT31;55421;51.600;5.718;2023-02-01T16:44:13;8.69;74.82
68439;SHT31;55421;51.600;5.718;2023-02-01T16:46:40;8.70;74.83
68439;SHT31;55421;51.600;5.718;2023-02-01T16:51:49;8.70;74.89
68439;SHT31;55421;51.600;5.718;2023-02-01T16:54:21;8.69;74.93
68439;SHT31;55421;51.600;5.718;2023-02-01T16:56:48;8.68;75.09
68439;SHT31;55421;51.600;5.718;2023-02-01T16:59:14;8.67;74.94
68439;SHT31;55421;51.600;5.718;2023-02-01T17:01:41;8.70;74.80
68439;SHT31;55421;51.600;5.718;2023-02-01T17:04:09;8.72;74.92
68439;SHT31;55421;51.600;5.718;2023-02-01T17:06:36;8.71;75.10
68439;SHT31;55421;51.600;5.718;2023-02-01T17:09:04;8.69;75.16
68439;SHT31;55421;51.600;5.718;2023-02-01T17:11:31;8.67;75.26
68439;SHT31;55421;51.600;5.718;2023-02-01T17:14:12;8.66;75.33
68439;SHT31;55421;51.600;5.718;2023-02-01T17:16:48;8.66;75.39
68439;SHT31;55421;51.600;5.718;2023-02-01T17:19:17;8.65;75.44
68439;SHT31;55421;51.600;5.718;2023-02-01T17:21:49;8.63;75.58
68439;SHT31;55421;51.600;5.718;2023-02-01T17:24:21;8.61;75.65
68439;SHT31;55421;51.600;5.718;2023-02-01T17:26:54;8.63;75.60
68439;SHT31;55421;51.600;5.718;2023-02-01T17:29:21;8.64;75.61
68439;SHT31;55421;51.600;5.718;2023-02-01T17:31:49;8.66;75.68
68439;SHT31;55421;51.600;5.718;2023-02-01T17:34:20;8.65;75.66
68439;SHT31;55421;51.600;5.718;2023-02-01T17:36:48;8.64;75.71
68439;SHT31;55421;51.600;5.718;2023-02-01T17:39:14;8.66;75.77
68439;SHT31;55421;51.600;5.718;2023-02-01T17:42:01;8.67;75.66
68439;SHT31;55421;51.600;5.718;2023-02-01T17:44:30;8.67;75.69
68439;SHT31;55421;51.600;5.718;2023-02-01T17:46:57;8.65;75.70
68439;SHT31;55421;51.600;5.718;2023-02-01T17:49:25;8.64;75.75
68439;SHT31;55421;51.600;5.718;2023-02-01T17:51:54;8.63;75.88
68439;SHT31;55421;51.600;5.718;2023-02-01T17:54:22;8.64;75.90
68439;SHT31;55421;51.600;5.718;2023-02-01T17:56:50;8.64;75.86
68439;SHT31;55421;51.600;5.718;2023-02-01T17:59:17;8.64;75.82
68439;SHT31;55421;51.600;5.718;2023-02-01T18:01:44;8.63;75.91
68439;SHT31;55421;51.600;5.718;2023-02-01T18:04:11;8.64;75.96
68439;SHT31;55421;51.600;5.718;2023-02-01T18:06:45;8.65;75.88
68439;SHT31;55421;51.600;5.718;2023-02-01T18:09:11;8.67;75.84
68439;SHT31;55421;51.600;5.718;2023-02-01T18:11:38;8.65;75.85
68439;SHT31;55421;51.600;5.718;2023-02-01T18:14:04;8.66;75.90
68439;SHT31;55421;51.600;5.718;2023-02-01T18:16:31;8.67;75.92
68439;SHT31;55421;51.600;5.718;2023-02-01T18:18:59;8.68;75.94
68439;SHT31;55421;51.600;5.718;2023-02-01T18:21:32;8.67;76.03
68439;SHT31;55421;51.600;5.718;2023-02-01T18:24:03;8.65;76.09
68439;SHT31;55421;51.600;5.718;2023-02-01T18:26:30;8.66;76.09
68439;SHT31;55421;51.600;5.718;2023-02-01T18:28:56;8.66;76.10
68439;SHT31;55421;51.600;5.718;2023-02-01T18:31:24;8.67;76.17
68439;SHT31;55421;51.600;5.718;2023-02-01T18:33:55;8.65;76.25
68439;SHT31;55421;51.600;5.718;2023-02-01T18:36:24;8.62;76.31
68439;SHT31;55421;51.600;5.718;2023-02-01T18:38:55;8.61;76.40
68439;SHT31;55421;51.600;5.718;2023-02-01T18:41:23;8.61;76.40
68439;SHT31;55421;51.600;5.718;2023-02-01T18:43:51;8.60;76.40
68439;SHT31;55421;51.600;5.718;2023-02-01T18:46:18;8.60;76.41
68439;SHT31;55421;51.600;5.718;2023-02-01T18:48:46;8.58;76.48
68439;SHT31;55421;51.600;5.718;2023-02-01T18:51:18;8.59;76.51
68439;SHT31;55421;51.600;5.718;2023-02-01T18:53:46;8.59;76.57
68439;SHT31;55421;51.600;5.718;2023-02-01T18:56:14;8.59;76.62
68439;SHT31;55421;51.600;5.718;2023-02-01T18:58:43;8.58;76.68
68439;SHT31;55421;51.600;5.718;2023-02-01T19:01:15;8.57;76.70
68439;SHT31;55421;51.600;5.718;2023-02-01T19:03:48;8.58;76.71
68439;SHT31;55421;51.600;5.718;2023-02-01T19:06:16;8.61;76.70
68439;SHT31;55421;51.600;5.718;2023-02-01T19:08:46;8.63;76.70
68439;SHT31;55421;51.600;5.718;2023-02-01T19:11:13;8.63;76.70